• Join FlightAware (Why Join?)
  • Login
  • US Flag 
01:12PM EDT


 

Airport Tracker/Info


-or-


 

Live Flight TrackerFlight Track Log ✈ GJS3707 ✈ 16-Jul-2013 ✈ KBOI - KORD

Flight Track Log - Related Links

Times and Time Zones

All times are in EDT time to prevent confusion due to time zone crossing. See the GJS3707 flight status page for this flight to view local times or setup timezone preferences in your user account.

Time Position Orientation Groundspeed Altitude Reporting Facility
EDT Latitude Longitude Course Direction KTS MPH feet Rate Location/Type
03:10PM 43.5892 -116.2989 81° East 222 255 4,400  Level Salt Lake Center
03:11PM 43.6381 -116.3589 318° Northwest 253 291 6,500 1,800 Climbing Salt Lake Center
03:12PM 43.6465 -115.5851 82° East  Level FlightAware Approximate
03:12PM 43.6994 -116.2975 36° Northeast 282 325 8,200  Level Salt Lake Center
03:13PM 43.6673 -115.4275 81° East  Level FlightAware Approximate
03:13PM 43.7142 -116.1939 79° East 288 331 10,300  Level Salt Lake Center
03:14PM 43.6885 -115.2677 65° Northeast  Level FlightAware Approximate
03:14PM 43.7281 -116.0672 81° East 300 345 11,700  Level Salt Lake Center
03:15PM 43.7141 -115.1072 81° East  Level FlightAware Approximate
03:15PM 43.7419 -115.9422 81° East 338 389 12,800  Level Salt Lake Center
03:16PM 43.7586 -115.7864 82° East 365 420 14,500 1,500 Climbing Salt Lake Center
03:17PM 43.7744 -115.6469 81° East 381 438 15,900 1,500 Climbing Salt Lake Center
03:18PM 43.7925 -115.4797 81° East 393 452 17,700 1,680 Climbing Salt Lake Center
03:19PM 43.8067 -115.3389 82° East 390 449 19,400 1,560 Climbing Salt Lake Center
03:20PM 43.8244 -115.1694 82° East 397 457 21,000 1,260 Climbing Salt Lake Center
03:21PM 43.8400 -115.0211 82° East 405 466 22,100 1,080 Climbing Salt Lake Center
03:22PM 43.8586 -114.8417 82° East 421 484 23,300 1,080 Climbing Salt Lake Center
03:23PM 43.8647 -114.6847 87° East 426 490 24,400 1,080 Climbing Salt Lake Center
03:24PM 43.8808 -114.5008 83° East 433 498 25,600 960 Climbing Salt Lake Center
03:25PM 43.8981 -114.3386 82° East 444 511 26,400 720 Climbing Salt Lake Center
03:26PM 43.9142 -114.1736 82° East 452 520 27,100 720 Climbing Salt Lake Center
03:27PM 43.9322 -113.9756 83° East 462 532 28,000 780 Climbing Salt Lake Center
03:28PM 43.9506 -113.8019 82° East 470 541 28,800 780 Climbing Salt Lake Center
03:29PM 43.9694 -113.6006 83° East 473 544 29,700 780 Climbing Salt Lake Center
03:30PM 43.9833 -113.4242 84° East 479 551 30,500 780 Climbing Salt Lake Center
03:31PM 44.0014 -113.2192 83° East 480 552 31,400 720 Climbing Salt Lake Center
03:32PM 44.0189 -113.0442 82° East 479 551 32,000 600 Climbing Salt Lake Center
03:33PM 44.0342 -112.8375 84° East 482 555 32,700 660 Climbing Salt Lake Center
03:34PM 44.0500 -112.6583 83° East 486 559 33,400 720 Climbing Salt Lake Center
03:35PM 44.0675 -112.4519 83° East 485 558 34,200 720 Climbing Salt Lake Center
03:36PM 44.0819 -112.2733 84° East 485 558 34,900 660 Climbing Salt Lake Center
03:37PM 44.0900 -112.0681 87° East 480 552 35,600 660 Climbing Salt Lake Center
03:38PM 44.0908 -111.8928 90° East 477 549 36,300 660 Climbing Salt Lake Center
03:39PM 44.0917 -111.7169 90° East 477 549 37,000 300 Climbing Salt Lake Center
03:41PM 44.0931 -111.5122 89° East 479 551 37,000  Level Salt Lake Center
03:42PM 44.0931 -111.3308 90° East 490 564 37,000  Level Salt Lake Center
03:43PM 44.0944 -111.1167 89° East 499 574 37,000  Level Salt Lake Center
03:44PM 44.0939 -110.9336 90° East 499 574 37,000  Level Salt Lake Center
03:45PM 44.0942 -110.7217 90° East 495 570 37,000  Level Salt Lake Center
03:46PM 44.0947 -110.5378 90° East 498 573 37,000  Level Salt Lake Center
03:47PM 44.0714 -110.3325 99° East 484 557 37,000  Level Salt Lake Center
03:48PM 44.0397 -110.1614 104° East 481 554 37,000  Level Salt Lake Center
03:49PM 44.0011 -109.9642 105° East 476 548 37,000  Level Salt Lake Center
03:50PM 44.0019 -109.7886 90° East 476 548 37,000  Level Salt Lake Center
03:51PM 44.0089 -109.5817 87° East 480 552 37,000  Level Salt Lake Center
03:52PM 44.0133 -109.4056 88° East 478 550 37,000  Level Salt Lake Center
03:53PM 44.0186 -109.1989 88° East 479 551 37,000  Level Salt Lake Center
03:54PM 44.0228 -109.0203 88° East 482 555 37,000  Level Salt Lake Center
03:55PM 44.0269 -108.8433 88° East 481 554 37,000  Level Salt Lake Center
03:56PM 44.0308 -108.6378 88° East 478 550 37,000  Level Salt Lake Center
03:57PM 44.0350 -108.4586 88° East 483 556 37,000  Level Salt Lake Center
03:58PM 44.0381 -108.2653 89° East 483 556 37,000  Level Salt Lake Center
03:59PM 44.0417 -108.0578 89° East 482 555 37,000  Level Salt Lake Center
04:00PM 44.0439 -107.8808 89° East 479 551 37,000  Level Salt Lake Center
04:01PM 44.0461 -107.6736 89° East 480 552 37,000  Level Salt Lake Center
04:02PM 44.0483 -107.4947 89° East 482 555 37,000  Level Salt Lake Center
04:03PM 44.0503 -107.3167 89° East 483 556 37,000  Level Salt Lake Center
04:04PM 44.0517 -107.1214 89° East 479 551 37,000  Level Salt Lake Center
04:05PM 44.0531 -106.9142 89° East 479 551 37,000  Level Salt Lake Center
04:06PM 44.0539 -106.7364 90° East 480 552 37,000  Level Salt Lake Center
04:07PM 44.0556 -106.5294 89° East 479 551 37,000  Level Salt Lake Center
04:08PM 44.0544 -106.3531 90° East 478 550 37,000  Level Salt Lake Center
04:09PM 44.0547 -106.1464 90° East 478 550 37,000  Level Salt Lake Center
04:10PM 44.0544 -105.9719 90° East 476 548 37,000  Level Salt Lake Center
04:11PM 44.0519 -105.7969 91° East 475 547 37,000  Level Salt Lake Center
04:12PM 44.0517 -105.5903 90° East 478 550 37,000  Level Salt Lake Center
04:13PM 44.0503 -105.4142 91° East 476 548 37,000  Level Salt Lake Center
04:15PM 44.0478 -105.2094 91° East 475 547 37,000  Level Salt Lake Center
04:16PM 44.0461 -105.0342 91° East 475 547 37,000  Level Salt Lake Center
04:17PM 44.0439 -104.8286 91° East 475 547 37,000  Level Salt Lake Center
04:18PM 44.0411 -104.6531 91° East 475 547 37,000  Level Salt Lake Center
04:19PM 44.0372 -104.4158 91° East 474 545 37,000  Level Denver Center
04:20PM 44.0331 -104.1886 91° East 466 536 37,000  Level Denver Center
04:21PM 44.0297 -104.0150 91° East 467 537 37,000  Level Denver Center
04:22PM 44.0264 -103.8128 91° East 468 539 37,000  Level Denver Center
04:23PM 44.0211 -103.6392 92° East 469 540 37,000  Level Denver Center
04:24PM 44.0169 -103.4361 92° East 470 541 37,000  Level Denver Center
04:25PM 44.0117 -103.2633 92° East 468 539 37,000  Level Denver Center
04:26PM 44.0069 -103.0639 92° East 465 535 37,000  Level Denver Center
04:27PM 44.0019 -102.8900 92° East 469 540 37,000  Level Denver Center
04:29PM 43.9903 -102.6053 93° East 470 541 37,000  Level Minneapolis Center
04:29PM 43.9875 -102.5314 93° East 473 544 37,000  Level Denver Center
04:30PM 43.9792 -102.3147 93° East 472 543 37,000  Level Denver Center
04:32PM 43.9733 -102.1339 93° East 471 542 37,000  Level Denver Center
04:33PM 43.9639 -101.9508 94° East 474 545 37,000 360 Level Denver Center
04:34PM 43.9558 -101.7681 93° East 476 548 37,800 720 Climbing Denver Center
04:35PM 43.9531 -101.5956 91° East 458 527 38,600 540 Climbing Denver Center
04:36PM 43.9458 -101.4225 93° East 450 518 39,000 240 Climbing Denver Center
04:36PM 43.9383 -101.3164 96° East 460 529 39,000  Level Minneapolis Center
04:37PM 43.9328 -101.1458 93° East 452 520 39,000  Level Minneapolis Center
04:38PM 43.9247 -100.9725 94° East 452 520 39,000  Level Minneapolis Center
04:39PM 43.9150 -100.7617 94° East 456 525 39,000  Level Minneapolis Center
04:40PM 43.9061 -100.5858 94° East 458 527 39,000  Level Minneapolis Center
04:41PM 43.8967 -100.4097 94° East 459 528 39,000  Level Minneapolis Center
04:42PM 43.8869 -100.2342 94° East 460 529 39,000  Level Minneapolis Center
04:43PM 43.8797 -100.0592 93° East 458 527 39,000  Level Minneapolis Center
04:44PM 43.8728 -99.8903 93° East 449 517 39,000  Level Minneapolis Center
04:45PM 43.8617 -99.6839 94° East 449 517 39,000  Level Minneapolis Center
04:47PM 43.8536 -99.5131 94° East 447 514 39,000  Level Minneapolis Center
04:48PM 43.8453 -99.3453 94° East 442 509 39,000  Level Minneapolis Center
04:49PM 43.8367 -99.1767 94° East 440 506 39,000  Level Minneapolis Center
04:50PM 43.8272 -99.0069 94° East 442 509 39,000  Level Minneapolis Center
04:51PM 43.8167 -98.8033 94° East 444 511 39,000  Level Minneapolis Center
04:52PM 43.8072 -98.6456 95° East 446 513 39,000  Level Minneapolis Center
04:53PM 43.7983 -98.4753 94° East 447 514 39,000  Level Minneapolis Center
04:54PM 43.7872 -98.3044 95° East 448 516 39,000  Level Minneapolis Center
04:55PM 43.7747 -98.0983 95° East 448 516 39,000  Level Minneapolis Center
04:56PM 43.7639 -97.9267 95° East 449 517 39,000  Level Minneapolis Center
04:57PM 43.7528 -97.7567 95° East 448 516 39,000  Level Minneapolis Center
04:58PM 43.7419 -97.5867 95° East 446 513 39,000  Level Minneapolis Center
04:59PM 43.7300 -97.4144 95° East 450 518 39,000  Level Minneapolis Center
05:00PM 43.7158 -97.2114 95° East 446 513 39,000  Level Minneapolis Center
05:01PM 43.7031 -97.0400 96° East 449 517 39,000  Level Minneapolis Center
05:02PM 43.6900 -96.8697 96° East 449 517 39,000  Level Minneapolis Center
05:03PM 43.6789 -96.7019 95° East 446 513 39,000  Level Minneapolis Center
05:04PM 43.6658 -96.5311 96° East 449 517 39,000  Level Minneapolis Center
05:05PM 43.6503 -96.3283 96° East 448 516 39,000  Level Minneapolis Center
05:06PM 43.6364 -96.1592 96° East 449 517 39,000  Level Minneapolis Center
05:07PM 43.6233 -95.9906 96° East 447 514 39,000  Level Minneapolis Center
05:08PM 43.6100 -95.8225 96° East 446 513 39,000  Level Minneapolis Center
05:09PM 43.5950 -95.6536 97° East 447 514 39,000  Level Minneapolis Center
05:10PM 43.5786 -95.4528 96° East 445 512 39,000  Level Minneapolis Center
05:11PM 43.5644 -95.2858 97° East 443 510 39,000  Level Minneapolis Center
05:12PM 43.5497 -95.1200 97° East 440 506 39,000  Level Minneapolis Center
05:13PM 43.5344 -94.9564 97° East 435 501 39,000  Level Minneapolis Center
05:14PM 43.5186 -94.7917 97° East 435 501 39,000  Level Minneapolis Center
05:15PM 43.5033 -94.6281 97° East 434 499 39,000  Level Minneapolis Center
05:17PM 43.4847 -94.4308 97° East 435 501 39,000  Level Minneapolis Center
05:18PM 43.4683 -94.2675 98° East 435 501 39,000  Level Minneapolis Center
05:19PM 43.4528 -94.1089 98° East 435 501 39,000  Level Minneapolis Center
05:20PM 43.4364 -93.9461 98° East 434 499 39,000  Level Minneapolis Center
05:21PM 43.4208 -93.7831 97° East 434 499 39,000  Level Minneapolis Center
05:22PM 43.3997 -93.5908 99° East 430 495 39,000  Level Minneapolis Center
05:23PM 43.3836 -93.4292 98° East 430 495 39,000 -120 Level Minneapolis Center
05:24PM 43.3669 -93.2664 98° East 434 499 38,800 -660 Descending Minneapolis Center
05:25PM 43.3489 -93.1056 99° East 431 496 37,700 -1,020 Descending Minneapolis Center
05:26PM 43.3328 -92.9422 98° East 435 501 36,800 -1,020 Descending Minneapolis Center
05:27PM 43.3106 -92.7464 99° East 436 502 35,600 -1,020 Descending Minneapolis Center
05:28PM 43.2928 -92.5831 98° East 436 502 34,700 -840 Descending Minneapolis Center
05:29PM 43.2744 -92.4206 99° East 436 502 33,900 -780 Descending Minneapolis Center
05:30PM 43.2558 -92.2583 99° East 433 498 33,100 -780 Descending Minneapolis Center
05:31PM 43.2372 -92.0978 99° East 430 495 32,300 -840 Descending Minneapolis Center
05:32PM 43.2161 -91.9022 98° East 432 497 31,400 -660 Descending Minneapolis Center
05:33PM 43.1961 -91.7353 99° East 441 507 31,000 -240 Descending Minneapolis Center
05:34PM 43.1569 -91.5725 108° East 451 519 31,000  Level Minneapolis Center
05:35PM 43.1028 -91.4158 115° Southeast 455 524 31,000  Level Minneapolis Center
05:36PM 43.0475 -91.2606 116° Southeast 457 526 31,000 -480 Level Chicago Center
05:37PM 42.9922 -91.1006 115° Southeast 465 535 30,100 -960 Descending Chicago Center
05:38PM 42.9381 -90.9428 115° Southeast 462 532 29,100 -1,020 Descending Chicago Center
05:39PM 42.8831 -90.7917 116° Southeast 452 520 28,100 -1,020 Descending Chicago Center
05:40PM 42.8292 -90.6400 116° Southeast 449 517 27,100 -1,020 Descending Chicago Center
05:41PM 42.7742 -90.4889 116° Southeast 448 516 26,100 -1,080 Descending Chicago Center
05:42PM 42.7092 -90.3075 116° Southeast 448 516 24,900 -1,020 Descending Chicago Center
05:43PM 42.6539 -90.1544 116° Southeast 452 520 24,000 -780 Descending Chicago Center
05:44PM 42.6006 -90.0072 116° Southeast 444 511 23,400 -540 Descending Chicago Center
05:45PM 42.5456 -89.8553 116° Southeast 418 481 22,900 -600 Descending Chicago Center
05:46PM 42.5164 -89.7031 105° East 422 486 22,200 -900 Descending Chicago Center
05:47PM 42.5147 -89.5428 91° East 425 489 21,100 -1,200 Descending Chicago Center
05:48PM 42.5119 -89.3589 91° East 421 484 19,800 -1,440 Descending Chicago Center
05:49PM 42.5089 -89.2008 91° East 420 483 18,200 -1,620 Descending Chicago Center
05:51PM 42.5075 -89.0469 91° East 413 475 16,500 -1,980 Descending Chicago Center
05:52PM 42.4958 -88.9036 96° East 387 445 14,200 -2,220 Descending Chicago Center
05:53PM 42.4575 -88.7742 112° Southeast 372 428 12,000 -2,040 Descending Chicago Center
05:54PM 42.4136 -88.6267 112° Southeast 363 418 10,100 -1,020 Descending Chicago Center
05:55PM 42.3753 -88.5022 113° Southeast 359 413 10,000 -60 Descending Chicago Center
05:56PM 42.3356 -88.3803 114° Southeast 357 411 10,000  Level Chicago Center
05:57PM 42.2761 -88.2858 130° Southeast 357 411 10,000  Level Chicago Center
05:58PM 42.2022 -88.1608 129° Southeast 356 410 10,000 -540 Level Chicago Center
05:59PM 42.1406 -88.0833 137° Southeast 317 365 8,900 -1,380 Descending Chicago Center
06:00PM 42.1000 -88.0000 123° Southeast 292 336 7,200 -960 Descending Chicago TRACON
06:01PM 42.1000 -87.9000 90° East 247 284 7,000 -240 Descending Chicago TRACON
06:02PM 42.1000 -87.8000 90° East 242 278 6,700 -900 Descending Chicago TRACON
06:03PM 42.1000 -87.7167 90° East 240 276 5,200 -1,500 Descending Chicago TRACON
06:04PM 42.0500 -87.6833 154° Southeast 233 268 3,800 -1,140 Descending Chicago TRACON
06:05PM 42.0000 -87.7333 217° Southwest 196 226 3,000 -840 Descending Chicago TRACON